createdAt,value
2023-03-26T00:01:46.437Z,7.84
2023-03-26T00:04:14.285Z,7.87
2023-03-26T00:06:42.005Z,7.73
2023-03-26T00:09:13.248Z,7.70
2023-03-26T00:11:41.304Z,7.94
2023-03-26T00:14:13.832Z,7.85
2023-03-26T00:16:43.322Z,7.80
2023-03-26T00:19:11.855Z,7.91
2023-03-26T00:21:39.894Z,7.91
2023-03-26T00:24:10.150Z,7.91
2023-03-26T00:26:38.907Z,7.92
2023-03-26T00:29:06.778Z,7.76
2023-03-26T00:31:35.685Z,7.60
2023-03-26T00:34:05.769Z,7.61
2023-03-26T00:36:35.746Z,7.58
2023-03-26T00:39:05.527Z,7.31
2023-03-26T00:41:36.867Z,7.19
2023-03-26T00:44:04.833Z,7.44
2023-03-26T00:46:32.837Z,7.47
2023-03-26T00:49:03.804Z,7.50
2023-03-26T00:51:35.052Z,7.44
2023-03-26T00:54:02.769Z,7.46
2023-03-26T00:56:30.792Z,7.44
2023-03-26T00:59:00.178Z,7.38
2023-03-26T01:01:30.318Z,7.42
2023-03-26T01:04:08.846Z,7.38
2023-03-26T01:06:42.085Z,7.42
2023-03-26T01:09:16.046Z,7.42
2023-03-26T01:11:44.863Z,7.43
2023-03-26T01:14:14.058Z,7.47
2023-03-26T01:16:46.034Z,7.49
2023-03-26T01:19:20.678Z,7.47
2023-03-26T01:21:50.181Z,7.47
2023-03-26T01:24:19.317Z,7.46
2023-03-26T01:27:06.016Z,7.44
2023-03-26T01:29:42.733Z,7.41
2023-03-26T01:32:23.048Z,7.32
2023-03-26T01:35:12.431Z,7.37
2023-03-26T01:37:52.581Z,7.35
2023-03-26T01:40:27.572Z,7.33
2023-03-26T01:43:01.256Z,7.21
2023-03-26T01:45:33.096Z,7.15
2023-03-26T01:48:01.364Z,7.07
2023-03-26T01:50:29.231Z,7.11
2023-03-26T01:52:57.070Z,7.05
2023-03-26T01:55:31.749Z,7.16
2023-03-26T01:58:08.444Z,7.21
2023-03-26T02:00:43.431Z,7.16
2023-03-26T02:03:23.972Z,7.22
2023-03-26T02:05:57.916Z,7.23
2023-03-26T02:08:35.207Z,7.13
2023-03-26T02:11:11.521Z,7.06
2023-03-26T02:13:39.951Z,7.10
2023-03-26T02:16:11.658Z,7.03
2023-03-26T02:18:39.660Z,7.14
2023-03-26T02:21:11.020Z,7.10
2023-03-26T02:23:40.332Z,7.04
2023-03-26T02:26:11.397Z,7.29
2023-03-26T02:28:39.770Z,7.35
2023-03-26T02:31:09.710Z,7.27
2023-03-26T02:33:37.868Z,7.39
2023-03-26T02:36:08.383Z,7.43
2023-03-26T02:38:36.527Z,7.48
2023-03-26T02:41:05.450Z,7.52
2023-03-26T02:43:34.510Z,7.55
2023-03-26T02:46:02.366Z,7.57
2023-03-26T02:48:31.323Z,7.42
2023-03-26T02:50:59.025Z,7.43
2023-03-26T02:53:29.729Z,7.37
2023-03-26T02:55:58.043Z,7.30
2023-03-26T02:58:26.399Z,7.32
2023-03-26T03:00:56.166Z,7.39
2023-03-26T03:03:24.502Z,7.52
2023-03-26T03:05:52.560Z,7.58
2023-03-26T03:08:21.457Z,7.58
2023-03-26T03:10:58.014Z,7.54
2023-03-26T03:13:25.763Z,7.67
2023-03-26T03:15:56.089Z,7.70
2023-03-26T03:18:24.106Z,7.73
2023-03-26T03:20:52.123Z,7.78
2023-03-26T03:23:19.932Z,7.71
2023-03-26T03:25:48.747Z,7.67
2023-03-26T03:28:18.278Z,7.53
2023-03-26T03:30:47.088Z,7.51
2023-03-26T03:33:16.242Z,7.39
2023-03-26T03:35:45.972Z,7.43
2023-03-26T03:38:13.787Z,7.57
2023-03-26T03:40:41.524Z,7.67
2023-03-26T03:43:09.266Z,7.73
2023-03-26T03:45:37.049Z,7.71
2023-03-26T03:48:05.089Z,7.74
2023-03-26T03:50:35.840Z,7.81
2023-03-26T03:53:05.631Z,7.86
2023-03-26T03:55:33.456Z,7.88
2023-03-26T03:58:01.514Z,7.93
2023-03-26T04:00:30.706Z,7.92
2023-03-26T04:02:58.790Z,7.71
2023-03-26T04:05:26.616Z,7.78
2023-03-26T04:07:55.778Z,7.76
2023-03-26T04:10:23.523Z,7.65
2023-03-26T04:12:51.256Z,7.70
2023-03-26T04:15:19.054Z,7.67
2023-03-26T04:17:46.784Z,7.73
2023-03-26T04:20:15.961Z,7.62
2023-03-26T04:22:44.061Z,7.68
2023-03-26T04:25:15.538Z,7.84
2023-03-26T04:27:44.136Z,7.96
2023-03-26T04:30:16.606Z,7.89
2023-03-26T04:32:44.700Z,7.79
2023-03-26T04:35:15.143Z,7.75
2023-03-26T04:37:44.440Z,7.82
2023-03-26T04:40:18.374Z,7.81
2023-03-26T04:42:46.535Z,7.72
2023-03-26T04:45:15.768Z,7.82
2023-03-26T04:47:43.560Z,7.88
2023-03-26T04:50:12.665Z,7.86
2023-03-26T04:52:41.624Z,7.91
2023-03-26T04:55:24.870Z,7.93
2023-03-26T04:57:56.811Z,7.84
2023-03-26T05:00:24.730Z,7.91
2023-03-26T05:02:55.877Z,7.97
2023-03-26T05:05:23.927Z,7.95
2023-03-26T05:07:51.632Z,7.99
2023-03-26T05:10:21.417Z,8.00
2023-03-26T05:12:49.732Z,7.90
2023-03-26T05:15:17.529Z,7.87
2023-03-26T05:17:46.365Z,7.77
2023-03-26T05:20:20.888Z,7.74
2023-03-26T05:22:49.420Z,7.81
2023-03-26T05:25:18.100Z,7.88
2023-03-26T05:27:47.475Z,7.88
2023-03-26T05:30:16.787Z,7.92
2023-03-26T05:32:45.182Z,7.96
2023-03-26T05:35:15.352Z,7.99
2023-03-26T05:37:44.490Z,7.98
2023-03-26T05:40:14.700Z,7.99
2023-03-26T05:42:42.880Z,8.00
2023-03-26T05:45:13.917Z,8.01
2023-03-26T05:47:41.858Z,8.01
2023-03-26T05:50:11.205Z,8.04
2023-03-26T05:52:39.276Z,8.00
2023-03-26T05:55:08.145Z,8.00
2023-03-26T05:57:36.751Z,8.00
2023-03-26T06:00:07.677Z,7.98
2023-03-26T06:02:36.987Z,7.91
2023-03-26T06:05:05.486Z,7.94
2023-03-26T06:07:34.019Z,7.99
2023-03-26T06:10:02.730Z,8.06
2023-03-26T06:12:30.427Z,8.05
2023-03-26T06:14:58.054Z,8.05
2023-03-26T06:17:25.715Z,8.05
2023-03-26T06:19:54.799Z,7.97
2023-03-26T06:22:22.603Z,7.92
2023-03-26T06:24:50.247Z,8.00
2023-03-26T06:27:17.889Z,8.04
2023-03-26T06:29:45.631Z,8.10
2023-03-26T06:32:19.769Z,8.11
2023-03-26T06:34:48.461Z,8.14
2023-03-26T06:37:17.994Z,8.16
2023-03-26T06:39:46.009Z,8.21
2023-03-26T06:42:13.936Z,8.22
2023-03-26T06:44:41.681Z,8.17
2023-03-26T06:47:09.417Z,8.25
2023-03-26T06:49:38.285Z,8.18
2023-03-26T06:52:06.215Z,8.22
2023-03-26T06:54:35.352Z,8.28
2023-03-26T06:57:03.202Z,8.12
2023-03-26T06:59:31.236Z,8.21
2023-03-26T07:01:58.971Z,8.20
2023-03-26T07:04:26.749Z,7.99
2023-03-26T07:06:54.903Z,8.14
2023-03-26T07:09:22.951Z,8.22
2023-03-26T07:11:52.065Z,8.27
2023-03-26T07:14:19.710Z,8.18
2023-03-26T07:16:47.432Z,8.20
2023-03-26T07:19:15.179Z,8.12
2023-03-26T07:21:43.492Z,8.23
2023-03-26T07:24:13.781Z,8.27
2023-03-26T07:26:51.744Z,8.24
2023-03-26T07:29:31.944Z,8.25
2023-03-26T07:32:09.455Z,8.28
2023-03-26T07:34:50.240Z,8.14
2023-03-26T07:37:29.394Z,7.99
2023-03-26T07:40:03.429Z,8.09
2023-03-26T07:42:49.711Z,8.04
2023-03-26T07:45:27.225Z,8.11
2023-03-26T07:47:57.008Z,8.00
2023-03-26T07:50:26.381Z,8.00
2023-03-26T07:52:54.768Z,8.04
2023-03-26T07:55:23.030Z,8.09
2023-03-26T07:58:00.372Z,8.00
2023-03-26T08:00:35.349Z,8.21
2023-03-26T08:03:38.417Z,8.01
2023-03-26T08:06:16.503Z,7.97
2023-03-26T08:08:54.446Z,8.14
2023-03-26T08:11:35.703Z,8.09
2023-03-26T08:14:16.251Z,8.25
2023-03-26T08:16:52.035Z,8.21
2023-03-26T08:19:40.751Z,8.25
2023-03-26T08:22:15.503Z,8.22
2023-03-26T08:24:53.834Z,8.26
2023-03-26T08:27:29.578Z,8.22
2023-03-26T08:30:04.240Z,8.23
2023-03-26T08:32:34.299Z,8.34
2023-03-26T08:35:05.048Z,8.42
2023-03-26T08:37:32.712Z,8.34
2023-03-26T08:40:00.708Z,8.33
2023-03-26T08:43:19.184Z,8.26
2023-03-26T08:46:12.162Z,8.21
2023-03-26T08:49:17.021Z,8.21
2023-03-26T08:51:59.769Z,8.31
2023-03-26T08:54:49.485Z,8.33
2023-03-26T08:57:41.069Z,8.25
2023-03-26T09:00:36.552Z,8.17
2023-03-26T09:03:32.583Z,8.23
2023-03-26T09:06:35.053Z,8.28
2023-03-26T09:09:41.617Z,8.15
2023-03-26T09:12:36.423Z,8.10
2023-03-26T09:15:36.655Z,8.10
2023-03-26T09:18:36.953Z,8.16
2023-03-26T09:21:30.545Z,8.11
2023-03-26T09:24:37.685Z,8.21
2023-03-26T09:27:16.332Z,8.11
2023-03-26T09:30:31.580Z,8.16
2023-03-26T09:33:32.837Z,8.28
2023-03-26T09:36:31.925Z,8.13
2023-03-26T09:39:08.953Z,7.97
2023-03-26T09:41:43.657Z,8.00
2023-03-26T09:44:39.247Z,8.20
2023-03-26T09:47:37.466Z,8.24
2023-03-26T09:50:24.730Z,8.24
2023-03-26T09:53:05.314Z,8.38
2023-03-26T09:56:00.446Z,8.33
2023-03-26T09:58:42.940Z,8.28
2023-03-26T10:01:18.357Z,8.24
2023-03-26T10:04:14.906Z,8.22
2023-03-26T10:06:54.177Z,8.17
2023-03-26T10:09:39.391Z,8.24
2023-03-26T10:12:13.924Z,8.29
2023-03-26T10:14:47.580Z,8.23
2023-03-26T10:17:33.649Z,8.34
2023-03-26T10:20:20.954Z,8.26
2023-03-26T10:22:57.616Z,8.32
2023-03-26T10:25:56.305Z,8.37
2023-03-26T10:28:40.777Z,8.35
2023-03-26T10:31:27.218Z,8.27
2023-03-26T10:34:06.332Z,8.16
2023-03-26T10:36:36.670Z,8.20
2023-03-26T10:39:38.026Z,8.20
2023-03-26T10:42:23.046Z,8.19
2023-03-26T10:45:15.467Z,8.30
2023-03-26T10:47:58.306Z,8.25
2023-03-26T10:50:41.932Z,8.22
2023-03-26T10:53:19.259Z,8.23
2023-03-26T10:55:53.009Z,8.30
2023-03-26T10:58:26.452Z,8.17
2023-03-26T11:01:00.737Z,8.07
2023-03-26T11:03:46.948Z,8.04
2023-03-26T11:06:26.504Z,8.08
2023-03-26T11:09:04.165Z,8.19
2023-03-26T11:11:38.494Z,8.28
2023-03-26T11:14:24.317Z,8.44
2023-03-26T11:17:03.963Z,8.31
2023-03-26T11:19:40.345Z,8.45
2023-03-26T11:22:18.740Z,8.38
2023-03-26T11:25:21.088Z,8.52
2023-03-26T11:28:01.641Z,8.44
2023-03-26T11:30:42.754Z,8.54
2023-03-26T11:33:14.147Z,8.85
2023-03-26T11:35:46.844Z,8.85
2023-03-26T11:38:20.755Z,9.22
2023-03-26T11:40:51.567Z,9.11
2023-03-26T11:43:23.243Z,9.36
2023-03-26T11:45:54.031Z,9.25
2023-03-26T11:48:28.638Z,9.62
2023-03-26T11:51:03.015Z,9.63
2023-03-26T11:53:34.564Z,9.96
2023-03-26T11:56:08.088Z,10.20
2023-03-26T11:58:43.755Z,10.31
2023-03-26T12:01:17.803Z,10.77
2023-03-26T12:03:57.243Z,10.97
2023-03-26T12:06:27.495Z,11.10
2023-03-26T12:08:56.866Z,11.01
2023-03-26T12:11:28.205Z,10.83
2023-03-26T12:14:00.308Z,11.05
2023-03-26T12:16:29.983Z,11.17
2023-03-26T12:19:04.119Z,11.17
2023-03-26T12:21:46.022Z,11.10
2023-03-26T12:24:28.051Z,11.06
2023-03-26T12:27:02.025Z,10.92
2023-03-26T12:29:34.310Z,11.12
2023-03-26T12:32:14.390Z,11.45
2023-03-26T12:34:42.745Z,11.54
2023-03-26T12:37:35.069Z,11.36
2023-03-26T12:40:27.136Z,10.89
2023-03-26T12:44:48.827Z,10.98
2023-03-26T12:45:44.773Z,10.96
2023-03-26T12:48:16.808Z,10.91
2023-03-26T12:50:57.318Z,10.89
2023-03-26T12:53:38.913Z,10.37
2023-03-26T12:56:19.742Z,10.70
2023-03-26T12:59:03.909Z,10.40
2023-03-26T13:01:45.711Z,10.38
2023-03-26T13:04:51.895Z,10.67
2023-03-26T13:07:35.143Z,10.85
2023-03-26T13:10:26.625Z,11.05
2023-03-26T13:13:09.840Z,11.44
2023-03-26T13:15:44.124Z,11.97
2023-03-26T13:18:24.213Z,12.22
2023-03-26T13:20:59.469Z,11.45
2023-03-26T13:23:46.049Z,11.22
2023-03-26T13:26:26.912Z,11.22
2023-03-26T13:29:06.905Z,10.84
2023-03-26T13:31:41.180Z,10.83
2023-03-26T13:34:19.505Z,10.44
2023-03-26T13:37:00.481Z,10.66
2023-03-26T13:39:36.117Z,10.49
2023-03-26T13:42:18.218Z,10.14
2023-03-26T13:45:05.072Z,10.17
2023-03-26T13:47:36.611Z,10.30
2023-03-26T13:50:15.450Z,10.28
2023-03-26T13:52:49.258Z,10.55
2023-03-26T13:55:26.319Z,10.55
2023-03-26T13:58:03.067Z,10.64
2023-03-26T14:00:54.480Z,10.46
2023-03-26T14:03:30.072Z,10.29
2023-03-26T14:06:05.650Z,10.10
2023-03-26T14:08:38.936Z,10.21
2023-03-26T14:11:12.389Z,10.15
2023-03-26T14:13:47.420Z,9.94
2023-03-26T14:16:19.397Z,10.07
2023-03-26T14:18:53.319Z,9.98
2023-03-26T14:21:36.580Z,10.05
2023-03-26T14:24:24.647Z,9.92
2023-03-26T14:27:05.540Z,9.98
2023-03-26T14:29:56.304Z,10.23
2023-03-26T14:33:01.176Z,10.33
2023-03-26T14:35:37.768Z,9.84
2023-03-26T14:38:33.898Z,9.50
2023-03-26T14:41:20.975Z,9.45
2023-03-26T14:44:18.221Z,9.51
2023-03-26T14:47:14.518Z,9.56
2023-03-26T14:50:20.566Z,9.69
2023-03-26T14:52:50.400Z,9.81
2023-03-26T14:55:33.814Z,10.08
2023-03-26T14:58:27.827Z,10.12
2023-03-26T15:01:18.620Z,10.14
2023-03-26T15:04:21.299Z,10.29
2023-03-26T15:07:33.958Z,10.26
2023-03-26T15:10:16.855Z,10.01
2023-03-26T15:12:58.941Z,9.72
2023-03-26T15:15:54.378Z,9.79
2023-03-26T15:18:52.990Z,9.48
2023-03-26T15:21:43.268Z,9.42
2023-03-26T15:25:04.162Z,9.16
2023-03-26T15:27:54.948Z,9.24
2023-03-26T15:30:57.875Z,9.34
2023-03-26T15:34:12.133Z,9.11
2023-03-26T15:37:17.717Z,9.01
2023-03-26T15:40:12.775Z,8.98
2023-03-26T15:42:54.359Z,8.95
2023-03-26T15:45:37.823Z,9.17
2023-03-26T15:48:44.223Z,9.04
2023-03-26T15:51:47.295Z,8.88
2023-03-26T15:54:24.105Z,8.62
2023-03-26T15:57:07.166Z,8.19
2023-03-26T15:59:44.260Z,8.44
2023-03-26T16:02:26.366Z,8.58
2023-03-26T16:04:55.849Z,8.72
2023-03-26T16:07:41.392Z,8.77
2023-03-26T16:10:28.034Z,9.52
2023-03-26T16:13:12.705Z,9.90
2023-03-26T16:15:41.449Z,9.91
2023-03-26T16:18:30.010Z,9.55
2023-03-26T16:21:05.413Z,9.63
2023-03-26T16:23:47.789Z,9.45
2023-03-26T16:26:20.792Z,9.42
2023-03-26T16:29:15.858Z,8.96
2023-03-26T16:32:05.827Z,9.14
2023-03-26T16:34:42.146Z,8.81
2023-03-26T16:37:40.878Z,8.74
2023-03-26T16:40:50.208Z,8.52
2023-03-26T16:43:42.378Z,8.44
2023-03-26T16:46:25.017Z,8.36
2023-03-26T16:48:59.737Z,8.23
2023-03-26T16:51:43.642Z,8.31
2023-03-26T16:54:22.115Z,8.16
2023-03-26T16:56:56.455Z,8.19
2023-03-26T17:00:05.469Z,7.86
2023-03-26T17:02:51.304Z,7.81
2023-03-26T17:05:25.338Z,7.80
2023-03-26T17:08:02.768Z,7.74
2023-03-26T17:10:40.053Z,7.66
2023-03-26T17:13:12.352Z,7.59
2023-03-26T17:15:49.298Z,7.55
2023-03-26T17:18:37.652Z,7.74
2023-03-26T17:21:12.051Z,7.54
2023-03-26T17:24:01.237Z,7.50
2023-03-26T17:26:42.228Z,7.63
2023-03-26T17:29:25.058Z,7.48
2023-03-26T17:31:59.267Z,7.25
2023-03-26T17:34:40.298Z,7.25
2023-03-26T17:37:11.846Z,7.20
2023-03-26T17:40:36.760Z,7.14
2023-03-26T17:43:11.097Z,7.07
2023-03-26T17:45:40.754Z,7.05
2023-03-26T17:48:16.775Z,6.87
2023-03-26T17:50:51.681Z,6.66
2023-03-26T17:53:24.449Z,6.85
2023-03-26T17:55:53.390Z,6.80
2023-03-26T17:58:30.101Z,6.84
2023-03-26T18:01:06.625Z,6.74
2023-03-26T18:03:39.154Z,6.69
2023-03-26T18:06:10.636Z,6.53
2023-03-26T18:08:49.572Z,6.49
2023-03-26T18:11:38.171Z,6.56
2023-03-26T18:14:20.619Z,6.67
2023-03-26T18:16:52.490Z,6.59
2023-03-26T18:19:22.957Z,6.60
2023-03-26T18:21:54.726Z,6.68
2023-03-26T18:24:25.517Z,6.65
2023-03-26T18:27:00.096Z,6.76
2023-03-26T18:29:31.079Z,6.62
2023-03-26T18:32:02.615Z,6.64
2023-03-26T18:34:32.618Z,6.60
2023-03-26T18:37:17.735Z,6.52
2023-03-26T18:39:58.978Z,6.61
2023-03-26T18:42:28.064Z,6.45
2023-03-26T18:45:00.853Z,6.44
2023-03-26T18:47:32.729Z,6.40
2023-03-26T18:50:01.163Z,6.48
2023-03-26T18:52:31.223Z,6.25
2023-03-26T18:55:00.099Z,6.18
2023-03-26T18:57:29.729Z,6.11
2023-03-26T19:00:09.873Z,6.01
2023-03-26T19:02:40.023Z,5.95
2023-03-26T19:05:13.804Z,5.96
2023-03-26T19:07:41.963Z,5.87
2023-03-26T19:10:18.555Z,5.76
2023-03-26T19:12:47.263Z,5.75
2023-03-26T19:15:17.357Z,5.79
2023-03-26T19:17:50.800Z,5.93
2023-03-26T19:20:22.658Z,5.94
2023-03-26T19:22:51.406Z,6.00
2023-03-26T19:25:22.549Z,5.98
2023-03-26T19:27:51.697Z,5.91
2023-03-26T19:30:30.136Z,5.84
2023-03-26T19:33:12.246Z,5.75
2023-03-26T19:35:42.488Z,5.77
2023-03-26T19:38:27.128Z,5.65
2023-03-26T19:40:56.880Z,5.70
2023-03-26T19:43:26.247Z,5.61
2023-03-26T19:48:49.038Z,5.65
2023-03-26T19:51:18.410Z,5.61
2023-03-26T19:51:21.749Z,5.64
2023-03-26T19:53:54.181Z,5.74
2023-03-26T19:56:22.886Z,5.65
2023-03-26T19:58:51.337Z,5.66
2023-03-26T20:01:21.455Z,5.71
2023-03-26T20:03:52.855Z,5.73
2023-03-26T20:06:30.620Z,5.62
2023-03-26T20:09:06.080Z,5.77
2023-03-26T20:11:37.990Z,5.78
2023-03-26T20:14:13.551Z,5.81
2023-03-26T20:16:43.825Z,5.69
2023-03-26T20:19:14.879Z,5.74
2023-03-26T20:21:44.227Z,5.80
2023-03-26T20:24:14.638Z,5.79
2023-03-26T20:26:42.820Z,5.76
2023-03-26T20:29:11.737Z,5.74
2023-03-26T20:31:41.516Z,5.70
2023-03-26T20:34:19.938Z,5.65
2023-03-26T20:36:54.062Z,5.59
2023-03-26T20:39:22.283Z,5.40
2023-03-26T20:41:51.268Z,5.49
2023-03-26T20:44:21.225Z,5.34
2023-03-26T20:46:50.638Z,5.48
2023-03-26T20:49:22.090Z,5.45
2023-03-26T20:51:49.908Z,5.41
2023-03-26T20:54:20.237Z,5.38
2023-03-26T20:56:49.077Z,5.33
2023-03-26T20:59:22.385Z,5.50
2023-03-26T21:01:51.159Z,5.51
2023-03-26T21:04:20.848Z,5.55
2023-03-26T21:06:49.282Z,5.36
2023-03-26T21:09:19.337Z,5.50
2023-03-26T21:11:53.809Z,5.53
2023-03-26T21:14:25.115Z,5.48
2023-03-26T21:16:53.395Z,5.45
2023-03-26T21:19:23.434Z,5.29
2023-03-26T21:22:04.687Z,5.38
2023-03-26T21:24:50.720Z,5.34
2023-03-26T21:27:26.430Z,5.35
2023-03-26T21:29:55.079Z,5.34
2023-03-26T21:32:24.351Z,5.21
2023-03-26T21:37:25.674Z,5.07
2023-03-26T21:39:53.793Z,5.18
2023-03-26T21:42:22.007Z,5.23
2023-03-26T21:44:50.572Z,5.33
2023-03-26T21:47:18.696Z,5.44
2023-03-26T21:49:46.898Z,5.56
2023-03-26T21:52:16.454Z,5.64
2023-03-26T21:54:44.736Z,5.58
2023-03-26T21:57:25.351Z,5.57
2023-03-26T22:00:07.420Z,5.47
2023-03-26T22:02:44.023Z,5.55
2023-03-26T22:05:16.246Z,5.44
2023-03-26T22:07:53.922Z,5.48
2023-03-26T22:10:21.997Z,5.38
2023-03-26T22:12:49.921Z,5.37
2023-03-26T22:15:19.223Z,5.34
2023-03-26T22:17:53.624Z,5.02
2023-03-26T22:20:24.516Z,5.30
2023-03-26T22:22:55.247Z,5.20
2023-03-26T22:25:24.524Z,5.19
2023-03-26T22:27:52.778Z,5.02
2023-03-26T22:30:21.850Z,4.92
2023-03-26T22:32:50.210Z,5.01
2023-03-26T22:35:18.165Z,4.95
2023-03-26T22:37:46.013Z,4.86
2023-03-26T22:40:15.207Z,4.90
2023-03-26T22:42:43.206Z,4.87
2023-03-26T22:45:12.414Z,4.92
2023-03-26T22:47:40.892Z,4.93
2023-03-26T22:50:09.870Z,4.92
2023-03-26T22:52:39.689Z,4.96
2023-03-26T22:55:08.706Z,4.90
2023-03-26T22:57:37.702Z,4.82
2023-03-26T23:00:16.181Z,4.89
2023-03-26T23:02:45.814Z,4.86
2023-03-26T23:05:13.919Z,4.86
2023-03-26T23:07:42.510Z,4.74
2023-03-26T23:10:11.584Z,4.36
2023-03-26T23:12:41.393Z,4.62
2023-03-26T23:15:10.524Z,4.56
2023-03-26T23:17:38.615Z,4.54
2023-03-26T23:20:14.633Z,4.56
2023-03-26T23:22:44.059Z,4.52
2023-03-26T23:25:12.606Z,4.57
2023-03-26T23:27:41.706Z,4.63
2023-03-26T23:30:11.749Z,4.51
2023-03-26T23:32:39.621Z,4.55
2023-03-26T23:35:08.310Z,4.54
2023-03-26T23:37:36.785Z,4.52
2023-03-26T23:40:09.887Z,4.54
2023-03-26T23:42:38.318Z,4.56
2023-03-26T23:45:09.014Z,4.47
2023-03-26T23:47:37.373Z,4.57
2023-03-26T23:50:06.298Z,4.49
2023-03-26T23:52:33.816Z,4.47
2023-03-26T23:55:01.576Z,4.50
2023-03-26T23:57:30.479Z,4.59
2023-03-26T23:59:58.416Z,4.59
